sensor_id;sensor_type;location;lat;lon;timestamp;P1;durP1;ratioP1;P2;durP2;ratioP2
8482;SDS011;4278;42.668;23.312;2023-11-21T00:00:22;19.07;;;11.77;;
8482;SDS011;4278;42.668;23.312;2023-11-21T00:02:49;20.70;;;10.23;;
8482;SDS011;4278;42.668;23.312;2023-11-21T00:05:16;19.27;;;11.60;;
8482;SDS011;4278;42.668;23.312;2023-11-21T00:07:43;23.97;;;11.83;;
8482;SDS011;4278;42.668;23.312;2023-11-21T00:10:10;17.57;;;10.40;;
8482;SDS011;4278;42.668;23.312;2023-11-21T00:12:39;25.73;;;12.00;;
8482;SDS011;4278;42.668;23.312;2023-11-21T00:15:07;24.30;;;12.73;;
8482;SDS011;4278;42.668;23.312;2023-11-21T00:17:37;26.03;;;11.30;;
8482;SDS011;4278;42.668;23.312;2023-11-21T00:20:05;20.50;;;11.30;;
8482;SDS011;4278;42.668;23.312;2023-11-21T00:22:33;22.07;;;11.07;;
8482;SDS011;4278;42.668;23.312;2023-11-21T00:25:00;21.57;;;10.47;;
8482;SDS011;4278;42.668;23.312;2023-11-21T00:27:28;21.13;;;11.33;;
8482;SDS011;4278;42.668;23.312;2023-11-21T00:29:55;24.33;;;10.53;;
8482;SDS011;4278;42.668;23.312;2023-11-21T00:32:22;17.73;;;9.40;;
8482;SDS011;4278;42.668;23.312;2023-11-21T00:34:50;16.63;;;9.50;;
8482;SDS011;4278;42.668;23.312;2023-11-21T00:37:17;22.40;;;11.57;;
8482;SDS011;4278;42.668;23.312;2023-11-21T00:39:44;21.50;;;12.27;;
8482;SDS011;4278;42.668;23.312;2023-11-21T00:42:10;24.30;;;12.90;;
8482;SDS011;4278;42.668;23.312;2023-11-21T00:44:37;29.83;;;15.10;;
8482;SDS011;4278;42.668;23.312;2023-11-21T00:47:05;24.43;;;16.03;;
8482;SDS011;4278;42.668;23.312;2023-11-21T00:49:33;25.27;;;16.73;;
8482;SDS011;4278;42.668;23.312;2023-11-21T00:52:01;29.07;;;15.10;;
8482;SDS011;4278;42.668;23.312;2023-11-21T00:54:28;28.27;;;14.23;;
8482;SDS011;4278;42.668;23.312;2023-11-21T00:56:55;23.27;;;13.30;;
8482;SDS011;4278;42.668;23.312;2023-11-21T00:59:22;32.43;;;13.83;;
8482;SDS011;4278;42.668;23.312;2023-11-21T01:01:49;24.07;;;14.23;;
8482;SDS011;4278;42.668;23.312;2023-11-21T01:04:16;24.20;;;13.27;;
8482;SDS011;4278;42.668;23.312;2023-11-21T01:06:43;24.87;;;13.00;;
8482;SDS011;4278;42.668;23.312;2023-11-21T01:09:11;24.77;;;12.93;;
8482;SDS011;4278;42.668;23.312;2023-11-21T01:11:38;25.03;;;14.50;;
8482;SDS011;4278;42.668;23.312;2023-11-21T01:14:05;29.43;;;14.97;;
8482;SDS011;4278;42.668;23.312;2023-11-21T01:16:33;27.20;;;15.43;;
8482;SDS011;4278;42.668;23.312;2023-11-21T01:19:01;38.93;;;17.03;;
8482;SDS011;4278;42.668;23.312;2023-11-21T01:21:29;29.07;;;16.63;;
8482;SDS011;4278;42.668;23.312;2023-11-21T01:23:56;32.77;;;16.10;;
8482;SDS011;4278;42.668;23.312;2023-11-21T01:26:25;31.40;;;17.30;;
8482;SDS011;4278;42.668;23.312;2023-11-21T01:28:51;31.60;;;16.93;;
8482;SDS011;4278;42.668;23.312;2023-11-21T01:31:18;26.93;;;15.53;;
8482;SDS011;4278;42.668;23.312;2023-11-21T01:33:45;29.00;;;15.17;;
8482;SDS011;4278;42.668;23.312;2023-11-21T01:36:12;24.03;;;15.43;;
8482;SDS011;4278;42.668;23.312;2023-11-21T01:38:39;28.17;;;15.33;;
8482;SDS011;4278;42.668;23.312;2023-11-21T01:41:07;29.37;;;16.67;;
8482;SDS011;4278;42.668;23.312;2023-11-21T01:43:37;34.67;;;17.33;;
8482;SDS011;4278;42.668;23.312;2023-11-21T01:46:04;31.83;;;17.10;;
8482;SDS011;4278;42.668;23.312;2023-11-21T01:48:32;30.43;;;17.37;;
8482;SDS011;4278;42.668;23.312;2023-11-21T01:51:00;32.07;;;17.27;;
8482;SDS011;4278;42.668;23.312;2023-11-21T01:53:28;29.67;;;16.33;;
8482;SDS011;4278;42.668;23.312;2023-11-21T01:55:55;25.40;;;15.17;;
8482;SDS011;4278;42.668;23.312;2023-11-21T01:58:23;32.90;;;16.30;;
8482;SDS011;4278;42.668;23.312;2023-11-21T02:00:51;28.13;;;16.23;;
8482;SDS011;4278;42.668;23.312;2023-11-21T02:03:20;33.83;;;16.23;;
8482;SDS011;4278;42.668;23.312;2023-11-21T02:05:47;30.87;;;15.63;;
8482;SDS011;4278;42.668;23.312;2023-11-21T02:08:13;29.27;;;14.90;;
8482;SDS011;4278;42.668;23.312;2023-11-21T02:10:40;30.80;;;14.60;;
8482;SDS011;4278;42.668;23.312;2023-11-21T02:13:07;23.50;;;14.10;;
8482;SDS011;4278;42.668;23.312;2023-11-21T02:15:34;30.13;;;15.00;;
8482;SDS011;4278;42.668;23.312;2023-11-21T02:18:05;28.27;;;15.73;;
8482;SDS011;4278;42.668;23.312;2023-11-21T02:20:32;31.30;;;15.47;;
8482;SDS011;4278;42.668;23.312;2023-11-21T02:23:01;24.33;;;14.33;;
8482;SDS011;4278;42.668;23.312;2023-11-21T02:25:28;29.77;;;14.73;;
8482;SDS011;4278;42.668;23.312;2023-11-21T02:27:57;26.57;;;14.63;;
8482;SDS011;4278;42.668;23.312;2023-11-21T02:30:25;23.10;;;13.57;;
8482;SDS011;4278;42.668;23.312;2023-11-21T02:32:53;27.80;;;14.87;;
8482;SDS011;4278;42.668;23.312;2023-11-21T02:35:21;26.40;;;14.70;;
8482;SDS011;4278;42.668;23.312;2023-11-21T02:37:48;30.63;;;15.33;;
8482;SDS011;4278;42.668;23.312;2023-11-21T02:40:17;34.03;;;16.03;;
8482;SDS011;4278;42.668;23.312;2023-11-21T02:42:45;27.63;;;15.50;;
8482;SDS011;4278;42.668;23.312;2023-11-21T02:45:12;29.63;;;15.97;;
8482;SDS011;4278;42.668;23.312;2023-11-21T02:47:41;27.40;;;14.77;;
8482;SDS011;4278;42.668;23.312;2023-11-21T02:50:08;27.93;;;14.30;;
8482;SDS011;4278;42.668;23.312;2023-11-21T02:52:36;24.97;;;12.73;;
8482;SDS011;4278;42.668;23.312;2023-11-21T02:55:03;21.27;;;13.10;;
8482;SDS011;4278;42.668;23.312;2023-11-21T02:57:32;26.47;;;14.70;;
8482;SDS011;4278;42.668;23.312;2023-11-21T02:59:58;31.00;;;14.30;;
8482;SDS011;4278;42.668;23.312;2023-11-21T03:02:25;28.80;;;14.53;;
8482;SDS011;4278;42.668;23.312;2023-11-21T03:04:53;25.37;;;13.53;;
8482;SDS011;4278;42.668;23.312;2023-11-21T03:07:19;31.13;;;13.67;;
8482;SDS011;4278;42.668;23.312;2023-11-21T03:09:46;23.27;;;12.17;;
8482;SDS011;4278;42.668;23.312;2023-11-21T03:12:13;26.10;;;13.60;;
8482;SDS011;4278;42.668;23.312;2023-11-21T03:14:42;22.47;;;12.23;;
8482;SDS011;4278;42.668;23.312;2023-11-21T03:17:09;25.07;;;12.90;;
8482;SDS011;4278;42.668;23.312;2023-11-21T03:19:36;23.90;;;14.63;;
8482;SDS011;4278;42.668;23.312;2023-11-21T03:22:03;24.93;;;13.77;;
8482;SDS011;4278;42.668;23.312;2023-11-21T03:24:30;22.67;;;12.13;;
8482;SDS011;4278;42.668;23.312;2023-11-21T03:26:57;18.90;;;10.93;;
8482;SDS011;4278;42.668;23.312;2023-11-21T03:29:24;20.80;;;12.33;;
8482;SDS011;4278;42.668;23.312;2023-11-21T03:31:52;23.93;;;12.87;;
8482;SDS011;4278;42.668;23.312;2023-11-21T03:34:23;19.90;;;12.67;;
8482;SDS011;4278;42.668;23.312;2023-11-21T03:36:52;21.23;;;13.23;;
8482;SDS011;4278;42.668;23.312;2023-11-21T03:39:19;24.23;;;13.10;;
8482;SDS011;4278;42.668;23.312;2023-11-21T03:41:47;26.20;;;13.30;;
8482;SDS011;4278;42.668;23.312;2023-11-21T03:44:14;22.47;;;12.97;;
8482;SDS011;4278;42.668;23.312;2023-11-21T03:46:43;24.17;;;12.73;;
8482;SDS011;4278;42.668;23.312;2023-11-21T03:49:11;28.77;;;12.93;;
8482;SDS011;4278;42.668;23.312;2023-11-21T03:51:38;21.37;;;12.67;;
8482;SDS011;4278;42.668;23.312;2023-11-21T03:54:04;21.97;;;13.20;;
8482;SDS011;4278;42.668;23.312;2023-11-21T03:56:31;24.27;;;13.77;;
8482;SDS011;4278;42.668;23.312;2023-11-21T03:58:58;36.97;;;14.87;;
8482;SDS011;4278;42.668;23.312;2023-11-21T04:01:25;32.57;;;15.87;;
8482;SDS011;4278;42.668;23.312;2023-11-21T04:03:52;33.07;;;18.23;;
8482;SDS011;4278;42.668;23.312;2023-11-21T04:06:20;41.57;;;23.37;;
8482;SDS011;4278;42.668;23.312;2023-11-21T04:08:47;48.87;;;28.47;;
8482;SDS011;4278;42.668;23.312;2023-11-21T04:11:13;45.67;;;25.80;;
8482;SDS011;4278;42.668;23.312;2023-11-21T04:13:40;44.73;;;27.00;;
8482;SDS011;4278;42.668;23.312;2023-11-21T04:16:08;44.53;;;26.00;;
8482;SDS011;4278;42.668;23.312;2023-11-21T04:18:36;42.43;;;24.53;;
8482;SDS011;4278;42.668;23.312;2023-11-21T04:21:03;37.67;;;22.73;;
8482;SDS011;4278;42.668;23.312;2023-11-21T04:23:32;39.37;;;23.33;;
8482;SDS011;4278;42.668;23.312;2023-11-21T04:26:00;35.73;;;19.10;;
8482;SDS011;4278;42.668;23.312;2023-11-21T04:28:27;40.80;;;21.13;;
8482;SDS011;4278;42.668;23.312;2023-11-21T04:30:54;37.80;;;22.37;;
8482;SDS011;4278;42.668;23.312;2023-11-21T04:33:21;40.40;;;23.00;;
8482;SDS011;4278;42.668;23.312;2023-11-21T04:35:47;36.13;;;22.47;;
8482;SDS011;4278;42.668;23.312;2023-11-21T04:38:14;35.70;;;22.13;;
8482;SDS011;4278;42.668;23.312;2023-11-21T04:40:42;40.17;;;20.23;;
8482;SDS011;4278;42.668;23.312;2023-11-21T04:43:09;37.27;;;20.70;;
8482;SDS011;4278;42.668;23.312;2023-11-21T04:45:37;36.87;;;20.97;;
8482;SDS011;4278;42.668;23.312;2023-11-21T04:48:04;33.60;;;19.07;;
8482;SDS011;4278;42.668;23.312;2023-11-21T04:50:31;33.30;;;19.63;;
8482;SDS011;4278;42.668;23.312;2023-11-21T04:52:58;29.73;;;17.97;;
8482;SDS011;4278;42.668;23.312;2023-11-21T04:55:25;33.77;;;18.93;;
8482;SDS011;4278;42.668;23.312;2023-11-21T04:57:54;27.10;;;16.43;;
8482;SDS011;4278;42.668;23.312;2023-11-21T05:00:21;29.83;;;16.63;;
8482;SDS011;4278;42.668;23.312;2023-11-21T05:02:48;31.40;;;17.03;;
8482;SDS011;4278;42.668;23.312;2023-11-21T05:05:15;29.17;;;16.10;;
8482;SDS011;4278;42.668;23.312;2023-11-21T05:07:42;31.07;;;14.93;;
8482;SDS011;4278;42.668;23.312;2023-11-21T05:10:09;28.67;;;14.87;;
8482;SDS011;4278;42.668;23.312;2023-11-21T05:12:37;17.07;;;12.33;;
8482;SDS011;4278;42.668;23.312;2023-11-21T05:15:06;18.83;;;11.60;;
8482;SDS011;4278;42.668;23.312;2023-11-21T05:17:36;17.93;;;11.17;;
8482;SDS011;4278;42.668;23.312;2023-11-21T05:20:04;21.63;;;12.30;;
8482;SDS011;4278;42.668;23.312;2023-11-21T05:22:33;19.80;;;12.43;;
8482;SDS011;4278;42.668;23.312;2023-11-21T05:25:01;19.67;;;10.30;;
8482;SDS011;4278;42.668;23.312;2023-11-21T05:27:28;19.03;;;11.87;;
8482;SDS011;4278;42.668;23.312;2023-11-21T05:29:55;19.37;;;11.20;;
8482;SDS011;4278;42.668;23.312;2023-11-21T05:32:24;24.50;;;11.67;;
8482;SDS011;4278;42.668;23.312;2023-11-21T05:34:52;23.17;;;13.63;;
8482;SDS011;4278;42.668;23.312;2023-11-21T05:37:19;20.33;;;12.30;;
8482;SDS011;4278;42.668;23.312;2023-11-21T05:39:45;23.97;;;14.07;;
8482;SDS011;4278;42.668;23.312;2023-11-21T05:42:12;19.97;;;12.23;;
8482;SDS011;4278;42.668;23.312;2023-11-21T05:44:41;22.73;;;13.27;;
8482;SDS011;4278;42.668;23.312;2023-11-21T05:47:09;21.60;;;12.33;;
8482;SDS011;4278;42.668;23.312;2023-11-21T05:49:37;20.67;;;12.13;;
8482;SDS011;4278;42.668;23.312;2023-11-21T05:52:04;19.23;;;11.47;;
8482;SDS011;4278;42.668;23.312;2023-11-21T05:54:31;22.53;;;13.10;;
8482;SDS011;4278;42.668;23.312;2023-11-21T05:56:59;20.80;;;12.30;;
8482;SDS011;4278;42.668;23.312;2023-11-21T05:59:29;21.73;;;12.93;;
8482;SDS011;4278;42.668;23.312;2023-11-21T06:01:56;22.73;;;13.90;;
8482;SDS011;4278;42.668;23.312;2023-11-21T06:04:23;21.00;;;12.50;;
8482;SDS011;4278;42.668;23.312;2023-11-21T06:06:52;24.33;;;12.93;;
8482;SDS011;4278;42.668;23.312;2023-11-21T06:09:19;30.07;;;13.77;;
8482;SDS011;4278;42.668;23.312;2023-11-21T06:11:46;20.90;;;12.50;;
8482;SDS011;4278;42.668;23.312;2023-11-21T06:14:13;24.27;;;12.80;;
8482;SDS011;4278;42.668;23.312;2023-11-21T06:16:43;22.80;;;12.10;;
8482;SDS011;4278;42.668;23.312;2023-11-21T06:19:10;24.17;;;13.53;;
8482;SDS011;4278;42.668;23.312;2023-11-21T06:21:36;23.20;;;13.07;;
8482;SDS011;4278;42.668;23.312;2023-11-21T06:24:05;24.23;;;15.03;;
8482;SDS011;4278;42.668;23.312;2023-11-21T06:26:32;29.63;;;15.83;;
8482;SDS011;4278;42.668;23.312;2023-11-21T06:28:59;25.67;;;14.00;;
8482;SDS011;4278;42.668;23.312;2023-11-21T06:31:28;30.93;;;14.90;;
8482;SDS011;4278;42.668;23.312;2023-11-21T06:33:55;22.53;;;12.57;;
8482;SDS011;4278;42.668;23.312;2023-11-21T06:36:23;18.90;;;11.53;;
8482;SDS011;4278;42.668;23.312;2023-11-21T06:38:49;24.27;;;12.07;;
8482;SDS011;4278;42.668;23.312;2023-11-21T06:41:18;21.80;;;11.70;;
8482;SDS011;4278;42.668;23.312;2023-11-21T06:43:44;16.33;;;11.23;;
8482;SDS011;4278;42.668;23.312;2023-11-21T06:46:11;18.63;;;11.27;;
8482;SDS011;4278;42.668;23.312;2023-11-21T06:48:40;22.10;;;12.57;;
8482;SDS011;4278;42.668;23.312;2023-11-21T06:51:08;27.13;;;14.80;;
8482;SDS011;4278;42.668;23.312;2023-11-21T06:53:35;33.10;;;15.87;;
8482;SDS011;4278;42.668;23.312;2023-11-21T06:56:02;29.73;;;16.30;;
8482;SDS011;4278;42.668;23.312;2023-11-21T06:58:32;28.40;;;16.57;;
8482;SDS011;4278;42.668;23.312;2023-11-21T07:00:59;30.20;;;17.40;;
8482;SDS011;4278;42.668;23.312;2023-11-21T07:03:26;29.17;;;16.77;;
8482;SDS011;4278;42.668;23.312;2023-11-21T07:05:52;28.47;;;16.63;;
8482;SDS011;4278;42.668;23.312;2023-11-21T07:08:19;28.13;;;15.23;;
8482;SDS011;4278;42.668;23.312;2023-11-21T07:10:46;24.70;;;14.87;;
8482;SDS011;4278;42.668;23.312;2023-11-21T07:13:13;20.37;;;13.23;;
8482;SDS011;4278;42.668;23.312;2023-11-21T07:15:41;21.33;;;12.63;;
8482;SDS011;4278;42.668;23.312;2023-11-21T07:18:08;22.17;;;12.67;;
8482;SDS011;4278;42.668;23.312;2023-11-21T07:20:35;33.30;;;15.30;;
8482;SDS011;4278;42.668;23.312;2023-11-21T07:23:02;23.63;;;12.23;;
8482;SDS011;4278;42.668;23.312;2023-11-21T07:25:30;19.00;;;11.73;;
8482;SDS011;4278;42.668;23.312;2023-11-21T07:27:58;22.13;;;12.17;;
8482;SDS011;4278;42.668;23.312;2023-11-21T07:30:25;19.43;;;11.47;;
8482;SDS011;4278;42.668;23.312;2023-11-21T07:32:55;25.33;;;12.57;;
8482;SDS011;4278;42.668;23.312;2023-11-21T07:35:22;19.60;;;11.03;;
8482;SDS011;4278;42.668;23.312;2023-11-21T07:37:49;25.07;;;12.47;;
8482;SDS011;4278;42.668;23.312;2023-11-21T07:40:16;21.03;;;10.57;;
8482;SDS011;4278;42.668;23.312;2023-11-21T07:42:43;18.87;;;11.23;;
8482;SDS011;4278;42.668;23.312;2023-11-21T07:45:10;23.90;;;10.87;;
8482;SDS011;4278;42.668;23.312;2023-11-21T07:47:37;21.47;;;11.30;;
8482;SDS011;4278;42.668;23.312;2023-11-21T07:50:07;21.63;;;12.70;;
8482;SDS011;4278;42.668;23.312;2023-11-21T07:52:35;28.47;;;14.03;;
8482;SDS011;4278;42.668;23.312;2023-11-21T07:55:02;20.93;;;12.60;;
8482;SDS011;4278;42.668;23.312;2023-11-21T07:57:29;26.60;;;12.77;;
8482;SDS011;4278;42.668;23.312;2023-11-21T07:59:56;21.37;;;11.97;;
8482;SDS011;4278;42.668;23.312;2023-11-21T08:02:22;20.77;;;11.77;;
8482;SDS011;4278;42.668;23.312;2023-11-21T08:04:51;20.53;;;11.07;;
8482;SDS011;4278;42.668;23.312;2023-11-21T08:07:19;22.57;;;10.50;;
8482;SDS011;4278;42.668;23.312;2023-11-21T08:09:46;20.93;;;11.83;;
8482;SDS011;4278;42.668;23.312;2023-11-21T08:12:15;18.57;;;12.07;;
8482;SDS011;4278;42.668;23.312;2023-11-21T08:14:42;19.57;;;11.60;;
8482;SDS011;4278;42.668;23.312;2023-11-21T08:17:09;25.07;;;13.37;;
8482;SDS011;4278;42.668;23.312;2023-11-21T08:19:36;18.67;;;12.30;;
8482;SDS011;4278;42.668;23.312;2023-11-21T08:22:03;25.00;;;13.60;;
8482;SDS011;4278;42.668;23.312;2023-11-21T08:24:34;22.17;;;12.93;;
8482;SDS011;4278;42.668;23.312;2023-11-21T08:27:02;24.80;;;13.37;;
8482;SDS011;4278;42.668;23.312;2023-11-21T08:29:32;18.13;;;11.00;;
8482;SDS011;4278;42.668;23.312;2023-11-21T08:31:59;19.73;;;10.93;;
8482;SDS011;4278;42.668;23.312;2023-11-21T08:34:26;19.20;;;10.93;;
8482;SDS011;4278;42.668;23.312;2023-11-21T08:36:53;20.07;;;12.63;;
8482;SDS011;4278;42.668;23.312;2023-11-21T08:39:20;24.00;;;11.93;;
8482;SDS011;4278;42.668;23.312;2023-11-21T08:41:50;27.70;;;11.67;;
8482;SDS011;4278;42.668;23.312;2023-11-21T08:44:17;28.57;;;12.20;;
8482;SDS011;4278;42.668;23.312;2023-11-21T08:46:44;21.23;;;12.13;;
8482;SDS011;4278;42.668;23.312;2023-11-21T08:49:11;22.10;;;12.30;;
8482;SDS011;4278;42.668;23.312;2023-11-21T08:51:39;20.40;;;11.50;;
8482;SDS011;4278;42.668;23.312;2023-11-21T08:54:06;18.73;;;11.53;;
8482;SDS011;4278;42.668;23.312;2023-11-21T08:56:33;17.03;;;11.37;;
8482;SDS011;4278;42.668;23.312;2023-11-21T08:59:01;18.27;;;11.23;;
8482;SDS011;4278;42.668;23.312;2023-11-21T09:01:28;22.10;;;11.80;;
8482;SDS011;4278;42.668;23.312;2023-11-21T09:03:56;19.80;;;13.27;;
8482;SDS011;4278;42.668;23.312;2023-11-21T09:06:23;21.00;;;12.40;;
8482;SDS011;4278;42.668;23.312;2023-11-21T09:08:50;22.27;;;12.37;;
8482;SDS011;4278;42.668;23.312;2023-11-21T09:11:17;21.80;;;12.63;;
8482;SDS011;4278;42.668;23.312;2023-11-21T09:13:44;20.73;;;12.80;;
8482;SDS011;4278;42.668;23.312;2023-11-21T09:16:13;23.40;;;15.07;;
8482;SDS011;4278;42.668;23.312;2023-11-21T09:18:41;20.63;;;13.17;;
8482;SDS011;4278;42.668;23.312;2023-11-21T09:21:08;21.23;;;12.50;;
8482;SDS011;4278;42.668;23.312;2023-11-21T09:23:35;18.50;;;10.77;;
8482;SDS011;4278;42.668;23.312;2023-11-21T09:26:02;19.80;;;10.93;;
8482;SDS011;4278;42.668;23.312;2023-11-21T09:28:30;20.17;;;10.50;;
8482;SDS011;4278;42.668;23.312;2023-11-21T09:30:57;17.20;;;10.97;;
8482;SDS011;4278;42.668;23.312;2023-11-21T09:33:25;21.20;;;10.43;;
8482;SDS011;4278;42.668;23.312;2023-11-21T09:35:52;18.97;;;11.53;;
8482;SDS011;4278;42.668;23.312;2023-11-21T09:38:19;16.80;;;11.10;;
8482;SDS011;4278;42.668;23.312;2023-11-21T09:40:46;17.50;;;12.30;;
8482;SDS011;4278;42.668;23.312;2023-11-21T09:43:15;18.50;;;10.93;;
8482;SDS011;4278;42.668;23.312;2023-11-21T09:45:45;23.20;;;11.90;;
8482;SDS011;4278;42.668;23.312;2023-11-21T09:48:13;20.67;;;11.13;;
8482;SDS011;4278;42.668;23.312;2023-11-21T09:50:43;19.73;;;10.90;;
8482;SDS011;4278;42.668;23.312;2023-11-21T09:53:13;17.33;;;10.20;;
8482;SDS011;4278;42.668;23.312;2023-11-21T09:55:45;18.33;;;11.13;;
8482;SDS011;4278;42.668;23.312;2023-11-21T09:58:15;13.83;;;9.13;;
8482;SDS011;4278;42.668;23.312;2023-11-21T10:00:43;19.87;;;9.83;;
8482;SDS011;4278;42.668;23.312;2023-11-21T10:03:11;19.23;;;10.80;;
8482;SDS011;4278;42.668;23.312;2023-11-21T10:05:38;14.93;;;10.40;;
8482;SDS011;4278;42.668;23.312;2023-11-21T10:08:08;20.10;;;11.07;;
8482;SDS011;4278;42.668;23.312;2023-11-21T10:10:36;24.70;;;12.20;;
8482;SDS011;4278;42.668;23.312;2023-11-21T10:13:06;17.13;;;10.67;;
8482;SDS011;4278;42.668;23.312;2023-11-21T10:15:35;21.20;;;11.57;;
8482;SDS011;4278;42.668;23.312;2023-11-21T10:18:03;21.03;;;13.63;;
8482;SDS011;4278;42.668;23.312;2023-11-21T10:20:31;29.77;;;16.53;;
8482;SDS011;4278;42.668;23.312;2023-11-21T10:23:00;34.07;;;18.20;;
8482;SDS011;4278;42.668;23.312;2023-11-21T10:25:30;24.13;;;14.23;;
8482;SDS011;4278;42.668;23.312;2023-11-21T10:27:57;29.37;;;19.37;;
8482;SDS011;4278;42.668;23.312;2023-11-21T10:30:31;32.07;;;18.73;;
8482;SDS011;4278;42.668;23.312;2023-11-21T10:33:02;31.90;;;17.40;;
8482;SDS011;4278;42.668;23.312;2023-11-21T10:35:39;36.07;;;20.73;;
8482;SDS011;4278;42.668;23.312;2023-11-21T10:38:12;27.40;;;15.83;;
8482;SDS011;4278;42.668;23.312;2023-11-21T10:40:40;32.17;;;19.23;;
8482;SDS011;4278;42.668;23.312;2023-11-21T10:43:09;33.50;;;19.83;;
8482;SDS011;4278;42.668;23.312;2023-11-21T10:45:38;30.97;;;19.60;;
8482;SDS011;4278;42.668;23.312;2023-11-21T10:48:05;34.13;;;21.73;;
8482;SDS011;4278;42.668;23.312;2023-11-21T10:50:34;33.50;;;20.40;;
8482;SDS011;4278;42.668;23.312;2023-11-21T10:53:01;31.87;;;19.63;;
8482;SDS011;4278;42.668;23.312;2023-11-21T10:55:30;31.73;;;19.27;;
8482;SDS011;4278;42.668;23.312;2023-11-21T10:57:59;34.80;;;19.17;;
8482;SDS011;4278;42.668;23.312;2023-11-21T11:00:30;27.57;;;15.90;;
8482;SDS011;4278;42.668;23.312;2023-11-21T11:02:57;36.67;;;19.13;;
8482;SDS011;4278;42.668;23.312;2023-11-21T11:05:25;31.53;;;18.70;;
8482;SDS011;4278;42.668;23.312;2023-11-21T11:07:57;37.13;;;16.07;;
8482;SDS011;4278;42.668;23.312;2023-11-21T11:10:28;24.07;;;15.50;;
8482;SDS011;4278;42.668;23.312;2023-11-21T11:12:55;26.53;;;14.40;;
8482;SDS011;4278;42.668;23.312;2023-11-21T11:15:25;25.70;;;15.37;;
8482;SDS011;4278;42.668;23.312;2023-11-21T11:17:52;22.97;;;14.33;;
8482;SDS011;4278;42.668;23.312;2023-11-21T11:20:23;27.43;;;14.97;;
8482;SDS011;4278;42.668;23.312;2023-11-21T11:22:56;23.50;;;14.27;;
8482;SDS011;4278;42.668;23.312;2023-11-21T11:25:37;32.27;;;15.77;;
8482;SDS011;4278;42.668;23.312;2023-11-21T11:28:14;25.87;;;15.30;;
8482;SDS011;4278;42.668;23.312;2023-11-21T11:30:50;22.03;;;12.90;;
8482;SDS011;4278;42.668;23.312;2023-11-21T11:33:30;20.90;;;13.07;;
8482;SDS011;4278;42.668;23.312;2023-11-21T11:36:04;21.00;;;10.57;;
8482;SDS011;4278;42.668;23.312;2023-11-21T11:38:36;19.87;;;11.80;;
8482;SDS011;4278;42.668;23.312;2023-11-21T11:41:04;23.50;;;15.17;;
8482;SDS011;4278;42.668;23.312;2023-11-21T11:43:31;26.47;;;14.67;;
8482;SDS011;4278;42.668;23.312;2023-11-21T11:46:10;21.33;;;14.20;;
8482;SDS011;4278;42.668;23.312;2023-11-21T11:48:40;23.53;;;14.43;;
8482;SDS011;4278;42.668;23.312;2023-11-21T11:51:10;26.47;;;14.77;;
8482;SDS011;4278;42.668;23.312;2023-11-21T11:53:39;16.87;;;10.57;;
8482;SDS011;4278;42.668;23.312;2023-11-21T11:56:21;17.23;;;10.60;;
8482;SDS011;4278;42.668;23.312;2023-11-21T11:58:51;25.47;;;13.57;;
8482;SDS011;4278;42.668;23.312;2023-11-21T12:01:20;22.97;;;14.30;;
8482;SDS011;4278;42.668;23.312;2023-11-21T12:06:56;32.37;;;14.70;;
8482;SDS011;4278;42.668;23.312;2023-11-21T12:09:28;27.63;;;15.77;;
8482;SDS011;4278;42.668;23.312;2023-11-21T12:11:56;29.30;;;16.77;;
8482;SDS011;4278;42.668;23.312;2023-11-21T12:14:23;29.57;;;16.20;;
8482;SDS011;4278;42.668;23.312;2023-11-21T12:16:52;22.73;;;15.37;;
8482;SDS011;4278;42.668;23.312;2023-11-21T12:19:19;31.50;;;17.13;;
8482;SDS011;4278;42.668;23.312;2023-11-21T12:21:48;27.37;;;15.77;;
8482;SDS011;4278;42.668;23.312;2023-11-21T12:24:15;29.93;;;15.97;;
8482;SDS011;4278;42.668;23.312;2023-11-21T12:26:43;29.90;;;17.27;;
8482;SDS011;4278;42.668;23.312;2023-11-21T12:29:10;31.53;;;17.80;;
8482;SDS011;4278;42.668;23.312;2023-11-21T12:31:37;27.80;;;16.70;;
8482;SDS011;4278;42.668;23.312;2023-11-21T12:34:06;26.67;;;16.57;;
8482;SDS011;4278;42.668;23.312;2023-11-21T12:36:36;25.10;;;17.20;;
8482;SDS011;4278;42.668;23.312;2023-11-21T12:39:04;30.50;;;18.13;;
8482;SDS011;4278;42.668;23.312;2023-11-21T12:41:31;27.73;;;16.77;;
8482;SDS011;4278;42.668;23.312;2023-11-21T12:43:58;39.63;;;18.57;;
8482;SDS011;4278;42.668;23.312;2023-11-21T12:46:24;36.53;;;21.73;;
8482;SDS011;4278;42.668;23.312;2023-11-21T12:48:54;41.83;;;21.60;;
8482;SDS011;4278;42.668;23.312;2023-11-21T12:51:23;31.60;;;19.47;;
8482;SDS011;4278;42.668;23.312;2023-11-21T12:53:50;33.50;;;19.77;;
8482;SDS011;4278;42.668;23.312;2023-11-21T12:56:19;33.23;;;20.60;;
8482;SDS011;4278;42.668;23.312;2023-11-21T12:58:49;37.03;;;21.93;;
8482;SDS011;4278;42.668;23.312;2023-11-21T13:01:19;33.10;;;20.07;;
8482;SDS011;4278;42.668;23.312;2023-11-21T13:03:48;33.43;;;20.60;;
8482;SDS011;4278;42.668;23.312;2023-11-21T13:06:17;32.87;;;19.83;;
8482;SDS011;4278;42.668;23.312;2023-11-21T13:08:46;36.60;;;20.63;;
8482;SDS011;4278;42.668;23.312;2023-11-21T13:11:13;39.73;;;22.70;;
8482;SDS011;4278;42.668;23.312;2023-11-21T13:13:41;31.47;;;19.07;;
8482;SDS011;4278;42.668;23.312;2023-11-21T13:16:09;39.80;;;19.57;;
8482;SDS011;4278;42.668;23.312;2023-11-21T13:18:36;33.10;;;19.93;;
8482;SDS011;4278;42.668;23.312;2023-11-21T13:21:05;33.63;;;20.27;;
8482;SDS011;4278;42.668;23.312;2023-11-21T13:23:37;34.17;;;21.10;;
8482;SDS011;4278;42.668;23.312;2023-11-21T13:26:07;40.87;;;22.23;;
8482;SDS011;4278;42.668;23.312;2023-11-21T13:28:35;31.77;;;19.50;;
8482;SDS011;4278;42.668;23.312;2023-11-21T13:31:03;32.87;;;20.63;;
8482;SDS011;4278;42.668;23.312;2023-11-21T13:33:45;35.00;;;19.83;;
8482;SDS011;4278;42.668;23.312;2023-11-21T13:36:16;37.83;;;20.90;;
8482;SDS011;4278;42.668;23.312;2023-11-21T13:38:47;36.00;;;23.37;;
8482;SDS011;4278;42.668;23.312;2023-11-21T13:41:16;35.80;;;20.47;;
8482;SDS011;4278;42.668;23.312;2023-11-21T13:43:43;38.27;;;21.90;;
8482;SDS011;4278;42.668;23.312;2023-11-21T13:46:15;41.10;;;22.43;;
8482;SDS011;4278;42.668;23.312;2023-11-21T13:48:46;37.00;;;20.93;;
8482;SDS011;4278;42.668;23.312;2023-11-21T13:51:16;37.27;;;21.17;;
8482;SDS011;4278;42.668;23.312;2023-11-21T13:53:43;41.50;;;21.63;;
8482;SDS011;4278;42.668;23.312;2023-11-21T13:56:13;42.50;;;21.83;;
8482;SDS011;4278;42.668;23.312;2023-11-21T13:58:46;41.73;;;20.70;;
8482;SDS011;4278;42.668;23.312;2023-11-21T14:01:16;32.87;;;20.97;;
8482;SDS011;4278;42.668;23.312;2023-11-21T14:04:06;35.90;;;20.83;;
8482;SDS011;4278;42.668;23.312;2023-11-21T14:06:45;35.30;;;21.30;;
8482;SDS011;4278;42.668;23.312;2023-11-21T14:09:14;42.83;;;22.33;;
8482;SDS011;4278;42.668;23.312;2023-11-21T14:11:48;40.03;;;22.03;;
8482;SDS011;4278;42.668;23.312;2023-11-21T14:14:18;45.73;;;22.40;;
8482;SDS011;4278;42.668;23.312;2023-11-21T14:16:45;41.40;;;22.70;;
8482;SDS011;4278;42.668;23.312;2023-11-21T14:19:12;38.03;;;22.43;;
8482;SDS011;4278;42.668;23.312;2023-11-21T14:21:42;45.90;;;24.27;;
8482;SDS011;4278;42.668;23.312;2023-11-21T14:24:09;43.40;;;24.13;;
8482;SDS011;4278;42.668;23.312;2023-11-21T14:26:38;46.00;;;24.43;;
8482;SDS011;4278;42.668;23.312;2023-11-21T14:29:06;42.10;;;23.10;;
8482;SDS011;4278;42.668;23.312;2023-11-21T14:31:35;37.53;;;24.10;;
8482;SDS011;4278;42.668;23.312;2023-11-21T14:34:02;41.53;;;24.47;;
8482;SDS011;4278;42.668;23.312;2023-11-21T14:36:31;41.63;;;24.30;;
8482;SDS011;4278;42.668;23.312;2023-11-21T14:38:58;38.17;;;22.40;;
8482;SDS011;4278;42.668;23.312;2023-11-21T14:41:25;37.77;;;22.57;;
8482;SDS011;4278;42.668;23.312;2023-11-21T14:43:53;42.30;;;24.17;;